createdAt,value
2019-05-07T00:01:14.739Z,3.60
2019-05-07T00:08:32.170Z,3.60
2019-05-07T00:11:09.066Z,3.40
2019-05-07T00:13:52.382Z,3.20
2019-05-07T00:16:25.000Z,3.63
2019-05-07T00:18:57.670Z,3.70
2019-05-07T00:21:33.339Z,3.20
2019-05-07T00:24:04.436Z,3.30
2019-05-07T00:26:45.919Z,3.60
2019-05-07T00:29:16.227Z,3.43
2019-05-07T00:31:46.692Z,3.60
2019-05-07T00:34:22.046Z,4.07
2019-05-07T00:37:03.022Z,3.67
2019-05-07T00:39:57.001Z,3.77
2019-05-07T00:42:48.171Z,3.30
2019-05-07T00:45:32.853Z,3.57
2019-05-07T00:48:17.835Z,3.57
2019-05-07T00:51:33.336Z,3.57
2019-05-07T00:54:12.061Z,3.50
2019-05-07T01:00:12.533Z,3.20
2019-05-07T01:02:48.358Z,3.13
2019-05-07T01:05:23.200Z,3.57
2019-05-07T01:07:55.623Z,3.77
2019-05-07T01:10:30.253Z,3.53
2019-05-07T01:16:17.863Z,3.67
2019-05-07T01:19:01.892Z,3.73
2019-05-07T01:21:39.570Z,3.63
2019-05-07T01:24:12.245Z,3.70
2019-05-07T01:26:46.531Z,3.80
2019-05-07T01:29:35.775Z,4.00
2019-05-07T01:32:16.198Z,3.63
2019-05-07T01:35:06.216Z,3.33
2019-05-07T01:37:44.020Z,3.03
2019-05-07T01:40:24.383Z,3.73
2019-05-07T01:42:59.745Z,3.80
2019-05-07T01:45:43.252Z,3.50
2019-05-07T01:48:04.469Z,3.83
2019-05-07T01:50:37.822Z,3.73
2019-05-07T01:53:38.838Z,3.13
2019-05-07T01:56:12.257Z,3.40
2019-05-07T02:01:42.925Z,3.07
2019-05-07T02:04:22.418Z,3.70
2019-05-07T02:07:13.117Z,3.40
2019-05-07T02:09:55.438Z,3.67
2019-05-07T02:12:32.353Z,3.20
2019-05-07T02:15:13.403Z,3.10
2019-05-07T02:17:45.353Z,3.87
2019-05-07T02:20:24.036Z,3.50
2019-05-07T02:22:56.415Z,3.07
2019-05-07T02:25:43.714Z,3.80
2019-05-07T02:28:14.583Z,3.40
2019-05-07T02:30:44.783Z,3.57
2019-05-07T02:33:37.022Z,3.53
2019-05-07T02:36:33.968Z,3.87
2019-05-07T02:39:23.764Z,4.13
2019-05-07T02:41:54.364Z,3.00
2019-05-07T02:44:24.449Z,3.73
2019-05-07T02:47:03.709Z,3.60
2019-05-07T02:49:43.581Z,3.40
2019-05-07T02:52:32.585Z,3.50
2019-05-07T02:55:13.590Z,3.80
2019-05-07T02:57:43.689Z,4.30
2019-05-07T03:00:19.525Z,3.80
2019-05-07T03:02:52.859Z,3.53
2019-05-07T03:05:27.418Z,3.60
2019-05-07T03:11:17.935Z,3.40
2019-05-07T03:14:14.884Z,3.63
2019-05-07T03:19:28.867Z,3.33
2019-05-07T03:22:03.751Z,3.90
2019-05-07T03:24:44.614Z,3.10
2019-05-07T03:27:44.821Z,3.33
2019-05-07T03:30:46.132Z,3.40
2019-05-07T03:33:37.233Z,3.43
2019-05-07T03:36:16.740Z,3.57
2019-05-07T03:38:53.769Z,3.60
2019-05-07T03:41:28.987Z,3.30
2019-05-07T03:45:08.134Z,3.87
2019-05-07T03:50:43.126Z,4.17
2019-05-07T03:57:11.031Z,3.20
2019-05-07T03:59:42.939Z,3.33
2019-05-07T04:02:44.084Z,3.73
2019-05-07T04:05:16.423Z,4.00
2019-05-07T04:11:03.444Z,3.47
2019-05-07T04:13:44.286Z,3.80
2019-05-07T04:17:28.891Z,3.67
2019-05-07T04:20:33.048Z,3.87
2019-05-07T04:23:22.941Z,3.93
2019-05-07T04:26:24.228Z,3.57
2019-05-07T04:35:55.771Z,3.80
2019-05-07T04:45:23.520Z,4.27
2019-05-07T05:19:09.138Z,4.50
2019-05-07T05:22:36.947Z,4.43
2019-05-07T05:29:28.519Z,5.03
2019-05-07T05:35:29.079Z,4.53
2019-05-07T05:41:38.002Z,4.83
2019-05-07T05:44:35.623Z,5.47
2019-05-07T05:47:17.782Z,5.10
2019-05-07T06:13:29.418Z,4.20
2019-05-07T06:19:34.367Z,4.17
2019-05-07T06:34:08.024Z,4.00
2019-05-07T06:40:29.313Z,4.00
2019-05-07T06:46:26.029Z,3.93
2019-05-07T06:49:03.160Z,3.87
2019-05-07T06:51:34.319Z,4.77
2019-05-07T06:54:12.925Z,4.50
2019-05-07T06:56:45.556Z,4.13
2019-05-07T06:59:53.884Z,4.30
2019-05-07T07:06:32.194Z,4.40
2019-05-07T07:18:23.074Z,4.27
2019-05-07T07:21:05.328Z,4.20
2019-05-07T07:24:26.490Z,4.73
2019-05-07T07:27:15.760Z,4.47
2019-05-07T07:34:08.884Z,4.23
2019-05-07T07:40:56.736Z,4.03
2019-05-07T07:51:03.380Z,3.43
2019-05-07T07:54:22.662Z,3.13
2019-05-07T08:04:12.091Z,3.67
2019-05-07T08:10:48.915Z,4.20
2019-05-07T08:23:05.076Z,3.20
2019-05-07T08:27:07.680Z,3.50
2019-05-07T08:29:43.024Z,2.90
2019-05-07T08:33:02.195Z,3.50
2019-05-07T08:39:22.311Z,3.63
2019-05-07T09:01:23.947Z,9.60
2019-05-07T09:04:41.787Z,3.33
2019-05-07T09:07:56.360Z,3.47
2019-05-07T09:11:01.838Z,3.30
2019-05-07T09:17:32.946Z,2.90
2019-05-07T09:20:13.724Z,3.83
2019-05-07T09:23:52.326Z,4.00
2019-05-07T09:27:09.687Z,3.30
2019-05-07T09:30:14.614Z,3.90
2019-05-07T09:33:16.860Z,3.57
2019-05-07T09:36:24.445Z,4.00
2019-05-07T09:39:36.983Z,3.47
2019-05-07T09:51:52.317Z,3.17
2019-05-07T09:55:27.621Z,2.97
2019-05-07T10:01:49.535Z,3.57
2019-05-07T10:04:43.400Z,3.40
2019-05-07T10:07:33.547Z,3.63
2019-05-07T10:13:45.127Z,3.40
2019-05-07T10:16:27.423Z,4.03
2019-05-07T10:19:22.123Z,4.80
2019-05-07T10:23:13.522Z,3.50
2019-05-07T10:43:03.644Z,4.17
2019-05-07T10:49:52.519Z,4.13
2019-05-07T10:56:03.134Z,4.37
2019-05-07T10:59:22.496Z,4.90
2019-05-07T11:02:39.356Z,3.80
2019-05-07T11:12:23.348Z,3.60
2019-05-07T11:15:51.802Z,4.40
2019-05-07T11:25:34.820Z,3.57
2019-05-07T11:28:08.013Z,3.57
2019-05-07T11:37:39.477Z,3.70
2019-05-07T11:40:34.872Z,3.60
2019-05-07T11:43:34.372Z,3.10
2019-05-07T11:50:25.492Z,2.67
2019-05-07T11:59:28.828Z,2.20
2019-05-07T12:02:47.283Z,2.23
2019-05-07T12:09:14.962Z,1.93
2019-05-07T12:15:37.501Z,2.07
2019-05-07T12:18:22.684Z,2.10
2019-05-07T12:20:55.185Z,2.60
2019-05-07T12:23:33.206Z,2.40
2019-05-07T12:26:05.711Z,2.17
2019-05-07T12:32:47.002Z,2.80
2019-05-07T12:35:41.910Z,3.00
2019-05-07T12:38:34.347Z,2.63
2019-05-07T12:41:43.665Z,2.37
2019-05-07T12:44:13.599Z,2.47
2019-05-07T12:46:46.497Z,2.50
2019-05-07T12:49:59.896Z,2.43
2019-05-07T12:53:14.535Z,2.63
2019-05-07T12:56:13.084Z,2.70
2019-05-07T12:59:24.490Z,2.90
2019-05-07T13:08:52.077Z,2.50
2019-05-07T13:11:42.381Z,2.70
2019-05-07T13:14:19.205Z,2.40
2019-05-07T13:17:15.779Z,2.50
2019-05-07T13:19:57.870Z,2.43
2019-05-07T13:26:17.005Z,2.43
2019-05-07T13:29:12.815Z,2.87
2019-05-07T13:33:04.315Z,3.23
2019-05-07T13:36:33.930Z,2.43
2019-05-07T13:39:32.523Z,2.80
2019-05-07T13:45:12.558Z,2.80
2019-05-07T13:47:59.748Z,2.73
2019-05-07T13:51:03.455Z,2.40
2019-05-07T13:54:23.440Z,2.80
2019-05-07T14:04:03.835Z,3.07
2019-05-07T14:07:15.342Z,3.13
2019-05-07T14:26:52.854Z,2.90
2019-05-07T14:29:24.887Z,2.60
2019-05-07T14:32:55.784Z,2.60
2019-05-07T14:36:08.613Z,3.07
2019-05-07T14:38:52.900Z,2.33
2019-05-07T14:42:29.805Z,3.90
2019-05-07T14:52:13.291Z,3.20
2019-05-07T14:58:31.816Z,2.93
2019-05-07T15:01:26.860Z,3.10
2019-05-07T15:04:03.364Z,3.30
2019-05-07T15:07:40.354Z,3.00
2019-05-07T15:10:56.521Z,3.20
2019-05-07T15:13:43.931Z,3.50
2019-05-07T15:26:50.925Z,3.07
2019-05-07T15:36:11.962Z,3.70
2019-05-07T15:42:22.116Z,4.57
2019-05-07T15:46:09.475Z,3.80
2019-05-07T15:49:03.580Z,3.43
2019-05-07T15:58:34.331Z,3.63
2019-05-07T16:01:13.295Z,3.77
2019-05-07T16:08:04.342Z,3.73
2019-05-07T16:11:32.491Z,3.93
2019-05-07T16:14:35.934Z,4.40
2019-05-07T16:17:42.856Z,5.10
2019-05-07T16:23:13.537Z,4.50
2019-05-07T16:25:38.745Z,4.30
2019-05-07T16:28:42.216Z,4.63
2019-05-07T16:31:48.830Z,4.27
2019-05-07T16:35:02.674Z,4.07
2019-05-07T16:38:15.707Z,3.90
2019-05-07T16:41:48.280Z,4.43
2019-05-07T16:45:51.861Z,3.83
2019-05-07T16:48:16.179Z,4.60
2019-05-07T16:54:45.269Z,4.23
2019-05-07T16:57:46.405Z,4.23
2019-05-07T17:03:19.214Z,4.17
2019-05-07T17:06:59.438Z,4.40
2019-05-07T17:09:54.708Z,3.87
2019-05-07T17:16:54.386Z,3.50
2019-05-07T17:19:35.730Z,3.37
2019-05-07T17:22:02.850Z,3.90
2019-05-07T17:24:36.492Z,3.60
2019-05-07T17:30:47.823Z,3.60
2019-05-07T17:33:19.631Z,3.83
2019-05-07T17:35:51.768Z,3.70
2019-05-07T17:39:32.137Z,3.43
2019-05-07T17:49:21.867Z,3.20
2019-05-07T17:51:52.716Z,3.30
2019-05-07T17:54:23.623Z,3.00
2019-05-07T17:56:53.998Z,3.47
2019-05-07T18:02:29.578Z,3.30
2019-05-07T18:05:03.133Z,3.10
2019-05-07T18:11:17.285Z,3.07
2019-05-07T18:14:02.446Z,3.30
2019-05-07T18:17:30.278Z,2.50
2019-05-07T18:20:02.156Z,2.97
2019-05-07T18:25:37.883Z,3.63
2019-05-07T18:28:56.530Z,3.27
2019-05-07T18:32:34.943Z,4.50
2019-05-07T18:35:05.373Z,4.30
2019-05-07T18:37:37.265Z,4.37
2019-05-07T18:40:12.699Z,4.63
2019-05-07T18:45:43.194Z,4.97
2019-05-07T18:49:20.696Z,4.67
2019-05-07T18:52:02.714Z,4.73
2019-05-07T18:57:48.247Z,4.40
2019-05-07T19:01:41.993Z,4.20
2019-05-07T19:04:13.054Z,4.23
2019-05-07T19:07:23.030Z,5.10
2019-05-07T19:09:53.415Z,4.00
2019-05-07T19:12:27.085Z,3.70
2019-05-07T19:14:57.572Z,4.60
2019-05-07T19:17:32.291Z,4.07
2019-05-07T19:20:15.785Z,3.53
2019-05-07T19:22:39.386Z,3.60
2019-05-07T19:26:02.535Z,3.80
2019-05-07T19:28:34.148Z,3.30
2019-05-07T19:31:04.214Z,3.50
2019-05-07T19:34:45.000Z,3.37
2019-05-07T19:37:22.258Z,3.20
2019-05-07T19:39:53.129Z,3.73
2019-05-07T19:42:48.141Z,3.60
2019-05-07T19:45:23.796Z,3.17
2019-05-07T19:47:53.061Z,3.53
2019-05-07T19:50:26.586Z,3.30
2019-05-07T19:53:04.169Z,3.33
2019-05-07T19:55:54.181Z,2.90
2019-05-07T19:58:25.423Z,3.67
2019-05-07T20:06:39.346Z,3.47
2019-05-07T20:09:37.199Z,3.53
2019-05-07T20:12:14.852Z,4.10
2019-05-07T20:17:25.501Z,4.20
2019-05-07T20:20:12.594Z,3.40
2019-05-07T20:32:40.063Z,3.60
2019-05-07T20:35:32.398Z,5.00
2019-05-07T20:38:06.334Z,4.23
2019-05-07T20:40:37.316Z,3.60
2019-05-07T20:45:51.779Z,3.63
2019-05-07T20:51:44.470Z,4.20
2019-05-07T20:54:23.044Z,3.90
2019-05-07T20:57:02.247Z,5.57
2019-05-07T20:59:33.790Z,7.03
2019-05-07T21:02:07.050Z,6.47
2019-05-07T21:05:36.591Z,6.97
2019-05-07T21:08:28.205Z,8.87
2019-05-07T21:10:59.328Z,11.17
2019-05-07T21:17:12.838Z,14.50
2019-05-07T21:19:53.322Z,18.63
2019-05-07T21:22:31.974Z,18.30
2019-05-07T21:26:16.484Z,11.90
2019-05-07T21:28:52.870Z,6.47
2019-05-07T21:31:27.551Z,5.00
2019-05-07T21:34:03.138Z,4.10
2019-05-07T21:36:35.463Z,3.40
2019-05-07T21:39:12.946Z,3.40
2019-05-07T21:42:13.865Z,3.10
2019-05-07T21:44:52.646Z,3.40
2019-05-07T21:47:28.749Z,3.27
2019-05-07T21:50:02.978Z,2.90
2019-05-07T21:52:39.443Z,2.73
2019-05-07T21:55:34.619Z,3.70
2019-05-07T21:58:38.450Z,3.40
2019-05-07T22:04:56.643Z,3.27
2019-05-07T22:07:27.575Z,2.60
2019-05-07T22:10:05.886Z,2.30
2019-05-07T22:16:09.206Z,2.40
2019-05-07T22:22:31.598Z,2.40
2019-05-07T22:25:07.794Z,2.40
2019-05-07T22:27:42.175Z,2.70
2019-05-07T22:30:24.800Z,2.63
2019-05-07T22:33:10.407Z,2.60
2019-05-07T22:39:32.719Z,2.83
2019-05-07T22:42:33.045Z,2.60
2019-05-07T22:45:22.773Z,2.87
2019-05-07T22:48:17.336Z,2.53
2019-05-07T22:50:51.938Z,2.57
2019-05-07T22:57:27.119Z,2.53
2019-05-07T23:02:49.283Z,2.47
2019-05-07T23:05:33.509Z,2.27
2019-05-07T23:08:09.718Z,2.10
2019-05-07T23:10:44.609Z,2.47
2019-05-07T23:16:55.587Z,2.00
2019-05-07T23:19:32.856Z,2.40
2019-05-07T23:22:13.431Z,2.27
2019-05-07T23:25:28.521Z,2.40
2019-05-07T23:28:17.464Z,2.43
2019-05-07T23:31:03.745Z,2.27
2019-05-07T23:33:52.128Z,2.03
2019-05-07T23:36:53.450Z,2.27
2019-05-07T23:54:26.531Z,2.43
2019-05-07T23:57:52.535Z,2.57
